Weather observations for the past three days for
Iowa Falls Municipal Airport
Metric (Imperial)
Date Time (cdt) Wind (kph) Vis. (km) Weather Sky Cond. Temperature (ºC) Relative Humidity Wind Chill (°C) Heat Index (°C) Pressure Precipitation (cm)
Air Dwpt 6 hour altimeter (cm) sea level (mb) 1 hr 3 hr 6 hr
Max. Min.
10 10:55 NW 17 16.09 Fair CLR 16.6 -4.2 24% 76.58 0.0
10 10:35 W 17 G 30 16.09 Fair CLR 16.6 -5.2 22% 76.58 0.0
10 10:15 NW 15 16.09 Fair CLR 16.1 -4 25% 76.58 0.0
10 09:55 NW 20 G 28 16.09 Fair CLR 15.7 -3.6 26% 76.58 0.0
10 09:35 W 11 16.09 Fair CLR 14.9 -3.1 29% 76.58 0.0
10 09:15 NW 11 16.09 Fair CLR 14.4 -2.9 30% 76.58 0.0
10 08:55 NW 11 16.09 Fair CLR 13.7 -3.6 30% 76.58 0.0
10 08:35 NW 7 16.09 Fair CLR 12.2 -3.4 34% 76.58 0.0
10 08:15 W 7 16.09 Fair CLR 11.4 -2.8 37% 76.58 0.0
10 07:55 W 6 16.09 Fair CLR 9.6 -1.9 45% 76.56 0.0
10 07:35 W 7 16.09 Fair CLR 7.9 -2.3 49% 7 76.53 0.0
10 07:15 NW 6 16.09 Fair CLR 6.2 -2.6 54% 76.53 0.0
10 06:55 W 6 16.09 Fair CLR 4.6 -3 4.6 2.5 58% 76.5 0.0
10 06:35 W 6 16.09 Fair CLR 3.6 -4.1 58% 76.48 0.0
10 06:15 W 6 16.09 Fair CLR 2.9 -4.1 60% 76.48 0.0
10 05:55 W 6 16.09 Fair CLR 2.5 -4.4 61% 76.45 0.0
10 05:35 Calm 16.09 Fair CLR 2.6 -5.1 57% 76.45 0.0
10 05:15 NW 7 16.09 Fair CLR 3.6 -4.5 56% 2 76.45 0.0
10 04:55 W 7 16.09 Fair CLR 4 -4.2 56% 2 76.45 0.0
10 04:35 W 7 16.09 Fair CLR 3.5 -4.1 58% 2 76.45 0.0
10 04:15 W 6 16.09 Fair CLR 4 -4.8 53% 76.43 0.0
10 03:55 NW 7 16.09 Fair CLR 3 -4.9 57% 1 76.43 0.0
10 03:35 NW 9 16.09 Fair CLR 3.4 -5.1 54% 1 76.4 0.0
10 03:15 NW 9 16.09 Fair CLR 3.5 -5.5 52% 1 76.4 0.0
10 02:55 W 9 16.09 Fair CLR 4.1 -5 52% 2 76.38 0.0
10 02:35 NW 7 16.09 Fair CLR 3.7 -6.1 49% 2 76.35 0.0
10 02:15 NW 9 16.09 Fair CLR 3.3 -6.6 49% 1 76.33 0.0
10 01:55 NW 9 16.09 Fair CLR 4.4 -6.2 46% 2 76.33 0.0
10 01:35 NW 9 16.09 Fair CLR 4.5 -6.5 45% 3 76.33 0.0
10 01:15 NW 13 16.09 Fair CLR 4.5 -6.1 46% 2 76.3 0.0
10 00:55 NW 11 16.09 Fair CLR 4.7 -6.5 17.9 4.7 44% 2 76.28 0.0
10 00:35 NW 13 16.09 Fair CLR 5.6 -5.9 44% 3 76.25 0.0
10 00:15 NW 15 16.09 Fair CLR 6.2 -5.3 44% 4 76.25 0.0
09 23:55 NW 13 16.09 Fair CLR 6.7 -5.3 42% 4 76.23 0.0
09 23:35 NW 9 16.09 Fair CLR 7.1 -5.5 41% 6 76.23 0.0
09 23:15 NW 11 16.09 Fair CLR 7.5 -7 35% 6 76.2 0.0
09 22:55 NW 13 16.09 Fair CLR 7.8 -5.8 38% 6 76.17 0.0
09 22:35 NW 15 16.09 Fair CLR 10.5 -7 29% 76.17 0.0
09 22:15 NW 13 16.09 Fair CLR 10.6 -7.1 28% 76.12 0.0
09 21:55 NW 17 16.09 Fair CLR 11.6 -7.1 27% 76.1 0.0
09 21:35 NW 17 16.09 Fair CLR 12 -7.1 26% 76.07 0.0
09 21:15 NW 15 16.09 Fair CLR 12.7 -7.4 24% 76.05 0.0
09 20:55 NW 19 16.09 Fair CLR 13.6 -7.2 23% 76.02 0.0
09 20:35 NW 17 16.09 Fair CLR 14.5 -6.9 22% 75.97 0.0
09 20:15 NW 22 16.09 Fair CLR 15.5 -7 21% 75.95 0.0
09 19:55 NW 26 16.09 Fair CLR 16.5 -7.1 19% 75.92 0.0
09 19:35 NW 31 16.09 Fair CLR 17.1 -7.2 18% 75.9 0.0
09 19:15 NW 24 G 37 16.09 Fair CLR 17.7 -6.2 19% 75.87 0.0
09 18:55 NW 35 16.09 Fair and Breezy CLR 18 -6.4 21.2 17.3 18% 75.87 0.0
09 18:35 NW 33 G 46 16.09 Fair and Breezy CLR 18.7 -6.1 18% 75.84 0.0
09 18:15 NW 33 G 43 16.09 Fair and Breezy CLR 19.6 -5.1 18% 75.82 0.0
09 17:55 NW 33 G 43 16.09 Fair and Breezy CLR 20.2 -4.7 18% 75.79 0.0
09 17:35 NW 30 G 43 16.09 Fair CLR 20.4 -4.1 19% 75.79 0.0
09 17:15 NW 41 G 46 16.09 Fair and Breezy CLR 20.4 -3.9 19% 75.74 0.0
09 16:55 NW 31 G 46 16.09 Fair CLR 20.4 -3.4 20% 75.74 0.0
09 16:35 NW 39 G 50 16.09 Fair and Breezy CLR 20.5 -3.4 20% 75.74 0.0
09 16:15 NW 26 G 44 16.09 Fair CLR 20.8 -2.5 21% 75.72 0.0
09 15:55 N 33 G 44 16.09 Fair and Breezy CLR 21 -1.9 21% 75.72 0.0
09 15:35 NW 35 G 46 16.09 Fair and Breezy CLR 21.2 -1 23% 75.72 0.0
09 15:15 NW 19 G 50 16.09 Fair CLR 20.8 -1.3 23% 75.69 0.0
09 14:55 NW 24 G 46 16.09 Fair CLR 20.8 -0.3 24% 75.69 0.0
09 14:35 NW 31 G 44 16.09 Fair CLR 19.9 0.4 27% 75.69 0.0
09 14:15 NW 28 G 46 16.09 Partly Cloudy SCT090 20.3 0.5 27% 75.67 0.0
09 13:55 NW 31 G 41 16.09 Partly Cloudy SCT100 19.9 2.1 31% 75.67 0.0
09 13:35 NW 26 G 46 16.09 Mostly Cloudy BKN100 19.8 3.5 34% 75.67 0.0
09 13:15 NW 28 G 41 16.09 Overcast OVC100 18.5 5.8 44% 75.64 0.0
09 12:55 NW 24 16.09 Overcast SCT070 SCT080 OVC100 17.1 5.2 18.4 10.9 46% 75.64 0.0
09 12:35 NW 35 G 41 16.09 Mostly Cloudy and Breezy SCT070 BKN080 BKN110 16.6 5.6 48% 75.67 0.0
09 12:15 NW 37 16.09 Partly Cloudy and Breezy SCT090 SCT120 18.2 5.6 44% 75.67 0.0
09 11:55 NW 28 16.09 Mostly Cloudy BKN090 17.5 5.9 47% 75.67 0.0
09 11:35 NW 22 G 37 16.09 Mostly Cloudy BKN090 17.8 4.9 43% 75.62 0.0
09 11:15 NW 35 G 44 16.09 Mostly Cloudy and Breezy BKN090 BKN110 18.1 4.6 41% 75.62 0.0
09 10:55 NW 28 16.09 Mostly Cloudy BKN090 BKN110 17.6 3.9 40% 75.57 0.0
09 10:35 NW 17 16.09 Mostly Cloudy BKN100 17.5 4 41% 75.57 0.0
09 10:15 NW 24 16.09 Mostly Cloudy BKN100 BKN120 16.8 3.4 41% 75.57 0.0
09 09:55 NW 26 16.09 Mostly Cloudy BKN110 16.9 2.4 38% 75.62 0.0
09 09:35 NW 19 16.09 Mostly Cloudy BKN110 16.6 1.8 37% 75.54 0.0
09 09:15 NW 22 16.09 Mostly Cloudy BKN120 16.1 0.5 35% 75.57 0.0
09 08:55 NW 31 G 37 16.09 Partly Cloudy SCT120 16.3 0 33% 75.57 0.0
09 08:35 NW 31 G 37 16.09 Partly Cloudy SCT120 16 0.1 34% 75.57 0.0
09 08:15 W 24 G 35 16.09 Fair CLR 16.1 0 34% 75.54 0.0
09 07:55 W 24 G 31 16.09 Fair CLR 14.4 0.3 38% 75.54 0.0
09 07:35 W 20 16.09 Fair CLR 13.2 0.3 41% 75.44 0.0
09 07:15 SW 17 16.09 Fair CLR 11.6 0.6 47% 75.41 0.0
09 06:55 SW 13 16.09 Fair CLR 10.7 0.4 11.5 6.2 49% 75.39 0.0
09 06:35 SW 13 16.09 Fair CLR 8.7 0.2 56% 7 75.39 0.0
09 06:15 SW 17 16.09 Fair CLR 7.6 -0.1 59% 5 75.39 0.0
09 05:55 SW 9 16.09 Fair CLR 6.2 -0.3 63% 5 75.39 0.0
09 05:35 SW 11 16.09 Fair CLR 6.4 -0.2 63% 4 75.39 0.0
09 05:15 SW 15 16.09 Fair CLR 7.1 -0.5 59% 5 75.39 0.0
09 04:55 SW 17 16.09 Fair CLR 7.6 -0.4 57% 5 75.39 0.0
09 04:35 W 13 16.09 Fair CLR 8.2 -0.4 55% 6 75.41 0.0
09 04:15 SW 15 16.09 Fair CLR 7.2 -0.2 60% 5 75.39 0.0
09 03:55 W 11 16.09 Fair CLR 7.5 0 59% 6 75.39 0.0
09 03:35 W 11 16.09 Fair CLR 8 0 57% 6 75.41 0.0
09 03:15 W 11 16.09 Fair CLR 8.5 0 55% 7 75.41 0.0
09 02:55 W 9 16.09 Fair CLR 9.8 0 51% 9 75.39 0.0
09 02:35 W 6 16.09 Fair CLR 10.2 0.1 50% 75.39 0.0
09 02:15 W 7 16.09 Fair CLR 10 0.1 51% 9 75.39 0.0
09 01:55 NW 11 16.09 Fair CLR 9.3 0.1 53% 8 75.41 0.0
09 01:35 NW 11 16.09 Fair CLR 10 0.3 51% 9 75.41 0.0
09 01:15 NW 11 16.09 Partly Cloudy SCT110 10.7 1.1 52% 75.41 0.0
09 00:55 NW 9 16.09 Mostly Cloudy BKN110 11.6 1.6 22.8 11.6 51% 75.41 0.0
09 00:35 W 9 16.09 Mostly Cloudy BKN120 12.1 0.9 47% 75.41 0.0
09 00:15 NW 9 16.09 Partly Cloudy SCT110 12.4 1.1 46% 75.41 0.0
08 23:55 NW 7 16.09 Partly Cloudy SCT110 13.6 0 40% 75.41 0.0
08 23:35 NW 11 16.09 Partly Cloudy SCT120 14.5 1.1 40% 75.41 0.0
08 23:15 W 9 16.09 Mostly Cloudy BKN120 15.7 0.3 35% 75.39 0.0
08 22:55 W 15 16.09 Partly Cloudy SCT120 15.4 0.3 36% 75.39 0.0
08 22:35 W 17 16.09 Fair CLR 16.1 0.3 34% 75.36 0.0
08 22:15 W 11 16.09 Fair CLR 16.1 0.7 35% 75.34 0.0
08 21:55 W 13 16.09 Partly Cloudy SCT110 16 0.7 36% 75.31 0.0
08 21:35 SW 13 16.09 Partly Cloudy SCT120 18 0.9 32% 75.29 0.0
08 21:15 SW 17 16.09 Partly Cloudy SCT110 19.3 0.4 28% 75.29 0.0
08 20:55 SW 19 16.09 Overcast OVC110 20.8 0 25% 75.29 0.0
08 20:35 SW 17 16.09 Mostly Cloudy BKN110 20.2 0 26% 75.26 0.0
08 20:15 SW 24 16.09 Mostly Cloudy BKN110 21 -0.2 24% 75.26 0.0
08 19:55 W 19 16.09 Overcast OVC110 22.1 -0.9 22% 75.29 0.0
08 19:35 W 17 16.09 Overcast OVC110 22.6 -1 21% 75.26 0.0
08 19:15 W 15 G 37 16.09 Overcast SCT095 OVC110 22.3 -2.2 19% 75.26 0.0
08 18:55 W 19 G 26 16.09 Mostly Cloudy BKN120 22.7 -2.1 24.5 21.4 19% 75.29 0.0
08 18:35 SW 17 16.09 Partly Cloudy SCT110 22.8 -2.4 19% 75.29 0.0
08 18:15 W 22 16.09 Partly Cloudy SCT120 23.5 -3.3 17% 75.31 0.0
08 17:55 W 24 G 35 16.09 Partly Cloudy SCT120 24 -3.1 16% 24 75.31 0.0
08 17:35 NW 24 G 39 16.09 Partly Cloudy SCT120 23.1 -3.4 17% 75.31 0.0
08 17:15 W 20 G 30 16.09 Mostly Cloudy BKN120 24.2 -3.7 15% 24 75.31 0.0
08 16:55 W 20 G 35 16.09 Partly Cloudy SCT120 22.9 -4.2 16% 75.34 0.0
08 16:35 W 20 G 44 16.09 Partly Cloudy SCT120 23.9 -2.8 17% 24 75.36 0.0
08 16:15 W 22 G 30 16.09 Mostly Cloudy BKN120 23.9 -4.3 15% 24 75.39 0.0
08 15:55 W 17 G 35 16.09 Fair CLR 23.8 -3.4 16% 75.41 0.0
08 15:35 W 7 G 28 16.09 Fair CLR 23.5 -3.7 16% 75.44 0.0
08 15:15 SW 22 G 31 16.09 Partly Cloudy SCT110 23.6 -2.8 17% 75.46 0.0
08 14:55 W 9 G 37 16.09 Partly Cloudy SCT110 23.1 -4.7 15% 75.49 0.0
08 14:35 SW 6 G 37 16.09 Fair CLR 22.9 -3.6 17% 75.51 0.0
08 14:15 W 7 G 26 16.09 Fair CLR 22.4 -3.9 17% 75.54 0.0
08 13:55 W 15 G 39 16.09 Fair CLR 22.6 -3.3 18% 75.54 0.0
08 13:35 W 7 G 35 16.09 Fair CLR 21.6 -3.8 18% 75.57 0.0
08 13:15 W 24 G 31 16.09 Partly Cloudy SCT100 22 -3.6 18% 75.59 0.0
08 12:55 W 22 G 31 16.09 Fair CLR 21.5 -3.6 21.5 4.6 18% 75.59 0.0
08 12:35 W 13 G 28 16.09 Fair CLR 21 -4.9 17% 75.62 0.0
08 12:15 W 28 G 33 16.09 Fair CLR 20.9 -4.1 18% 75.64 0.0
08 11:55 W 11 16.09 Fair CLR 20.7 -4.5 18% 75.67 0.0
08 11:35 Calm 16.09 Fair CLR 20.3 -3.8 19% 75.67 0.0
08 11:15 W 17 G 28 16.09 Fair CLR 20.2 -2.5 22% 75.69 0.0
08 10:55 SW 13 16.09 Fair CLR 19.8 -2.6 22% 75.69 0.0
08 10:35 W 13 16.09 Fair CLR 19.5 -0.3 27% 75.69 0.0
08 10:15 SW 11 16.09 Fair CLR 18.6 -1 27% 75.72 0.0
08 09:55 SW 9 16.09 Fair CLR 17.7 0.9 32% 75.74 0.0
08 09:35 S 11 16.09 Fair CLR 16.6 1 35% 75.74 0.0
08 09:15 S 11 16.09 Fair CLR 15.1 0.4 37% 75.74 0.0
08 08:55 S 9 16.09 Fair CLR 13.9 0.1 39% 75.77 0.0
08 08:35 SE 13 16.09 Fair CLR 12.7 -1 39% 75.77 0.0
08 08:15 SE 11 16.09 Fair CLR 11.8 -0.6 43% 75.77 0.0
08 07:55 SE 6 16.09 Fair CLR 10.2 -1.5 44% 75.77 0.0
08 07:35 Calm 16.09 Fair CLR 7.8 -1.8 51% 75.77 0.0
08 07:15 Calm 16.09 Fair CLR 5.5 -0.4 66% 75.74 0.0
08 06:55 Calm 16.09 Fair CLR 4.6 -2.4 7.1 3.7 61% 75.74 0.0
08 06:35 Calm 16.09 Fair CLR 4.1 -1.3 68% 75.77 0.0
08 06:15 Calm 16.09 Fair CLR 4.1 -2.5 63% 75.74 0.0
08 05:55 Calm 16.09 Fair CLR 4.6 -2.3 61% 75.74 0.0
08 05:35 Calm 16.09 Fair CLR 3.7 -2.2 66% 75.74 0.0
08 05:15 Calm 16.09 Fair CLR 4.9 -2.4 60% 75.74 0.0
08 04:55 Calm 16.09 Fair CLR 4.2 -2.6 62% 75.74 0.0
08 04:35 Calm 16.09 Fair CLR 4.5 -3.8 55% 75.74 0.0
08 04:15 Calm 16.09 Fair CLR 6.1 -4.7 46% 75.74 0.0
08 03:55 SE 11 16.09 Fair CLR 5.7 -4.1 50% 4 75.74 0.0
08 03:35 SE 6 16.09 Fair CLR 6.6 -4.1 47% 75.74 0.0
08 03:15 Calm 16.09 Fair CLR 6.6 -4.1 47% 75.79 0.0
08 02:55 Calm 16.09 Fair CLR 6 -4.2 48% 75.79 0.0
08 02:35 Calm 16.09 Fair CLR 6.4 -4.3 47% 75.79 0.0
08 02:15 Calm 16.09 Fair CLR 5.1 -4.1 52% 75.79 0.0
08 01:55 Calm 16.09 Fair CLR 6.2 -4.4 47% 75.79 0.0
08 01:35 Calm 16.09 Fair CLR 6.7 -3.8 47% 75.82 0.0
08 01:15 SE 7 16.09 Fair CLR 6.5 -3.3 50% 5 75.82 0.0
08 00:55 E 11 16.09 Fair CLR 7 -3.7 18.5 7 47% 5 75.82 0.0
08 00:35 SE 9 16.09 Fair CLR 7.8 -4 43% 6 75.84 0.0
08 00:15 E 9 16.09 Fair CLR 8 -3.5 44% 7 75.84 0.0
07 23:55 SE 9 16.09 Fair CLR 8.3 -4 42% 7 75.84 0.0
07 23:35 E 6 16.09 Fair CLR 9.1 -4.9 37% 75.84 0.0
07 23:15 NE 6 16.09 Fair CLR 10.4 -5.5 33% 75.84 0.0
07 22:55 E 6 16.09 Fair CLR 10.7 -5.2 33% 75.84 0.0
07 22:35 NE 6 16.09 Fair CLR 10.9 -5.5 31% 75.84 0.0
07 22:15 NE 6 16.09 Fair CLR 11.8 -5 31% 75.84 0.0
07 21:55 Calm 16.09 Fair CLR 11.6 -5.6 30% 75.84 0.0
07 21:35 N 7 16.09 Fair CLR 12.5 -5.3 29% 75.82 0.0
07 21:15 Calm 16.09 Fair CLR 13.2 -5.5 27% 75.79 0.0
07 20:55 N 7 16.09 Fair CLR 14.6 -6.2 23% 75.77 0.0
07 20:35 N 7 16.09 Fair CLR 14.9 -5.9 23% 75.74 0.0
07 20:15 N 13 16.09 Fair CLR 14.7 -5.1 25% 75.72 0.0
07 19:55 N 13 16.09 Fair CLR 16.6 -5.8 21% 75.72 0.0
07 19:35 NW 11 16.09 Fair CLR 17.5 -5.7 20% 75.72 0.0
07 19:15 N 17 16.09 Fair CLR 18.2 -6.4 18% 75.69 0.0
07 18:55 NW 17 16.09 Fair CLR 18.5 -6.1 19.7 16.6 18% 75.72 0.0
07 18:35 W 15 16.09 Fair CLR 19 -6 18% 75.69 0.0
07 18:15 NW 22 16.09 Fair CLR 19.1 -5.5 18% 75.69 0.0
07 17:55 NW 11 16.09 Fair CLR 19 -5 19% 75.72 0.0
07 17:35 NW 19 G 26 16.09 Fair CLR 19.1 -5.9 18% 75.72 0.0
07 17:15 NW 15 G 28 16.09 Fair CLR 19.2 -5.5 18% 75.72 0.0
07 16:55 NW 15 G 28 16.09 Fair CLR 19.4 -5.6 18% 75.72 0.0
07 16:35 W 17 16.09 Fair CLR 19 -4.8 20% 75.74 0.0
07 16:15 NW 19 G 26 16.09 Partly Cloudy SCT095 19.3 -4.7 19% 75.74 0.0
07 15:55 W 20 G 28 16.09 Fair CLR 18.2 -4.7 21% 75.74 0.0
07 15:35 NW 17 G 31 16.09 Partly Cloudy SCT095 19 -4.6 20% 75.79 0.0
07 15:15 Calm 16.09 Partly Cloudy SCT095 17.1 -6.3 20% 75.79 0.0
07 14:55 NW 19 16.09 Fair CLR 18.5 -4.3 21% 75.82 0.0
07 14:35 W 7 G 31 16.09 Fair CLR 18.6 -4.2 21% 75.82 0.0
07 14:15 NW 6 G 33 16.09 Fair CLR 17.7 -4.3 22% 75.82 0.0
07 13:55 N 15 G 31 16.09 Partly Cloudy SCT085 17.8 -4.3 22% 75.82 0.0
07 13:35 Calm 16.09 Partly Cloudy SCT085 17 -3.6 24% 75.82 0.0
07 13:15 NW 22 G 33 16.09 Fair CLR 17 -3.9 24% 75.84 0.0
07 12:55 NW 17 G 30 16.09 Fair CLR 16.6 -3.7 16.7 6.6 25% 75.84 0.0
07 12:35 NW 22 G 41 16.09 Fair CLR 16.6 -3.2 26% 75.87 0.0
07 12:15 W 20 G 31 16.09 Fair CLR 16.5 -2.2 28% 75.87 0.0
07 11:55 NW 11 G 31 16.09 Fair CLR 15.8 -3.8 26% 75.87 0.0
07 11:35 W 11 G 33 16.09 Fair CLR 15.6 -3 28% 75.9 0.0
07 11:15 W 19 G 26 16.09 Fair CLR 15.2 -2.7 29% 75.9 0.0
Date Time (cdt) Wind (kph) Vis. (km) Weather Sky Cond. Air Dwpt Max. Min. Relative Humidity Wind Chill (°C) Heat Index (°C) altimeter (cm) sea level (mb) 1 hr 3 hr 6 hr
6 hour
Temperature (ºC) Pressure Precipitation (cm)